sensor_id;sensor_type;location;lat;lon;timestamp;P1;durP1;ratioP1;P2;durP2;ratioP2
53797;SDS011;39707;45.384;9.300;2023-10-19T00:02:01;7.60;;;4.97;;
53797;SDS011;39707;45.384;9.300;2023-10-19T00:04:28;14.35;;;5.63;;
53797;SDS011;39707;45.384;9.300;2023-10-19T00:06:57;7.80;;;3.55;;
53797;SDS011;39707;45.384;9.300;2023-10-19T00:09:23;6.90;;;4.43;;
53797;SDS011;39707;45.384;9.300;2023-10-19T00:11:51;6.15;;;5.28;;
53797;SDS011;39707;45.384;9.300;2023-10-19T00:14:17;7.35;;;4.10;;
53797;SDS011;39707;45.384;9.300;2023-10-19T00:16:43;8.02;;;4.95;;
53797;SDS011;39707;45.384;9.300;2023-10-19T00:19:17;4.53;;;4.13;;
53797;SDS011;39707;45.384;9.300;2023-10-19T00:21:46;7.53;;;5.38;;
53797;SDS011;39707;45.384;9.300;2023-10-19T00:24:18;6.82;;;5.88;;
53797;SDS011;39707;45.384;9.300;2023-10-19T00:26:47;4.78;;;3.58;;
53797;SDS011;39707;45.384;9.300;2023-10-19T00:29:13;5.85;;;5.45;;
53797;SDS011;39707;45.384;9.300;2023-10-19T00:32:08;5.05;;;3.88;;
53797;SDS011;39707;45.384;9.300;2023-10-19T00:34:39;9.85;;;4.55;;
53797;SDS011;39707;45.384;9.300;2023-10-19T00:37:05;4.50;;;4.10;;
53797;SDS011;39707;45.384;9.300;2023-10-19T00:39:35;7.22;;;5.55;;
53797;SDS011;39707;45.384;9.300;2023-10-19T00:42:09;6.55;;;4.53;;
53797;SDS011;39707;45.384;9.300;2023-10-19T00:44:35;6.05;;;3.92;;
53797;SDS011;39707;45.384;9.300;2023-10-19T00:47:03;6.13;;;4.60;;
53797;SDS011;39707;45.384;9.300;2023-10-19T00:49:32;6.60;;;4.53;;
53797;SDS011;39707;45.384;9.300;2023-10-19T00:51:58;5.63;;;3.83;;
53797;SDS011;39707;45.384;9.300;2023-10-19T00:54:35;3.28;;;2.97;;
53797;SDS011;39707;45.384;9.300;2023-10-19T00:57:06;7.88;;;4.85;;
53797;SDS011;39707;45.384;9.300;2023-10-19T00:59:41;6.78;;;5.13;;
53797;SDS011;39707;45.384;9.300;2023-10-19T01:02:14;6.90;;;3.55;;
53797;SDS011;39707;45.384;9.300;2023-10-19T01:04:49;7.00;;;6.25;;
53797;SDS011;39707;45.384;9.300;2023-10-19T01:07:20;15.48;;;4.35;;
53797;SDS011;39707;45.384;9.300;2023-10-19T01:09:47;5.97;;;4.77;;
53797;SDS011;39707;45.384;9.300;2023-10-19T01:12:17;2.17;;;1.80;;
53797;SDS011;39707;45.384;9.300;2023-10-19T01:15:10;6.75;;;3.42;;
53797;SDS011;39707;45.384;9.300;2023-10-19T01:17:42;11.35;;;6.15;;
53797;SDS011;39707;45.384;9.300;2023-10-19T01:20:12;4.45;;;3.75;;
53797;SDS011;39707;45.384;9.300;2023-10-19T01:25:14;6.45;;;5.20;;
53797;SDS011;39707;45.384;9.300;2023-10-19T01:27:41;5.20;;;4.72;;
53797;SDS011;39707;45.384;9.300;2023-10-19T01:30:07;6.00;;;4.57;;
53797;SDS011;39707;45.384;9.300;2023-10-19T01:32:34;3.67;;;2.95;;
53797;SDS011;39707;45.384;9.300;2023-10-19T01:35:00;4.55;;;4.05;;
53797;SDS011;39707;45.384;9.300;2023-10-19T01:37:27;4.63;;;4.18;;
53797;SDS011;39707;45.384;9.300;2023-10-19T01:39:52;9.90;;;5.65;;
53797;SDS011;39707;45.384;9.300;2023-10-19T01:42:18;8.30;;;6.85;;
53797;SDS011;39707;45.384;9.300;2023-10-19T01:44:44;3.95;;;3.67;;
53797;SDS011;39707;45.384;9.300;2023-10-19T01:47:10;4.20;;;3.83;;
53797;SDS011;39707;45.384;9.300;2023-10-19T01:49:36;4.63;;;4.30;;
53797;SDS011;39707;45.384;9.300;2023-10-19T01:52:02;7.45;;;6.10;;
53797;SDS011;39707;45.384;9.300;2023-10-19T01:54:29;10.25;;;6.88;;
53797;SDS011;39707;45.384;9.300;2023-10-19T01:56:55;5.85;;;4.57;;
53797;SDS011;39707;45.384;9.300;2023-10-19T01:59:25;10.98;;;6.50;;
53797;SDS011;39707;45.384;9.300;2023-10-19T02:01:52;11.80;;;6.53;;
53797;SDS011;39707;45.384;9.300;2023-10-19T02:04:20;5.65;;;4.47;;
53797;SDS011;39707;45.384;9.300;2023-10-19T02:06:49;10.63;;;3.83;;
53797;SDS011;39707;45.384;9.300;2023-10-19T02:09:18;7.43;;;5.55;;
53797;SDS011;39707;45.384;9.300;2023-10-19T02:11:57;8.57;;;5.18;;
53797;SDS011;39707;45.384;9.300;2023-10-19T02:14:26;10.73;;;5.95;;
53797;SDS011;39707;45.384;9.300;2023-10-19T02:16:56;4.53;;;3.15;;
53797;SDS011;39707;45.384;9.300;2023-10-19T02:19:24;3.13;;;2.95;;
53797;SDS011;39707;45.384;9.300;2023-10-19T02:21:52;7.78;;;5.75;;
53797;SDS011;39707;45.384;9.300;2023-10-19T02:24:18;5.43;;;3.53;;
53797;SDS011;39707;45.384;9.300;2023-10-19T02:26:45;8.57;;;4.72;;
53797;SDS011;39707;45.384;9.300;2023-10-19T02:29:12;10.63;;;4.75;;
53797;SDS011;39707;45.384;9.300;2023-10-19T02:31:41;8.10;;;5.45;;
53797;SDS011;39707;45.384;9.300;2023-10-19T02:34:08;8.15;;;5.85;;
53797;SDS011;39707;45.384;9.300;2023-10-19T02:36:37;5.10;;;4.22;;
53797;SDS011;39707;45.384;9.300;2023-10-19T02:39:13;3.97;;;3.58;;
53797;SDS011;39707;45.384;9.300;2023-10-19T02:41:40;6.25;;;4.55;;
53797;SDS011;39707;45.384;9.300;2023-10-19T02:44:10;5.25;;;4.40;;
53797;SDS011;39707;45.384;9.300;2023-10-19T02:46:48;4.00;;;3.43;;
53797;SDS011;39707;45.384;9.300;2023-10-19T02:49:18;3.88;;;3.50;;
53797;SDS011;39707;45.384;9.300;2023-10-19T02:51:45;13.43;;;5.07;;
53797;SDS011;39707;45.384;9.300;2023-10-19T02:54:12;11.23;;;7.38;;
53797;SDS011;39707;45.384;9.300;2023-10-19T02:56:58;5.10;;;4.68;;
53797;SDS011;39707;45.384;9.300;2023-10-19T02:59:25;6.60;;;4.22;;
53797;SDS011;39707;45.384;9.300;2023-10-19T03:01:53;4.68;;;3.25;;
53797;SDS011;39707;45.384;9.300;2023-10-19T03:04:31;7.25;;;5.57;;
53797;SDS011;39707;45.384;9.300;2023-10-19T03:07:00;6.68;;;4.20;;
53797;SDS011;39707;45.384;9.300;2023-10-19T03:09:27;5.43;;;3.72;;
53797;SDS011;39707;45.384;9.300;2023-10-19T03:11:55;3.80;;;3.40;;
53797;SDS011;39707;45.384;9.300;2023-10-19T03:14:24;5.30;;;4.28;;
53797;SDS011;39707;45.384;9.300;2023-10-19T03:16:51;10.98;;;5.65;;
53797;SDS011;39707;45.384;9.300;2023-10-19T03:19:17;5.90;;;4.30;;
53797;SDS011;39707;45.384;9.300;2023-10-19T03:21:45;3.15;;;2.30;;
53797;SDS011;39707;45.384;9.300;2023-10-19T03:24:14;5.55;;;5.05;;
53797;SDS011;39707;45.384;9.300;2023-10-19T03:26:59;3.30;;;3.05;;
53797;SDS011;39707;45.384;9.300;2023-10-19T03:29:25;8.20;;;5.78;;
53797;SDS011;39707;45.384;9.300;2023-10-19T03:31:57;4.07;;;2.97;;
53797;SDS011;39707;45.384;9.300;2023-10-19T03:34:26;5.95;;;5.10;;
53797;SDS011;39707;45.384;9.300;2023-10-19T03:36:56;2.80;;;2.55;;
53797;SDS011;39707;45.384;9.300;2023-10-19T03:39:21;11.77;;;4.28;;
53797;SDS011;39707;45.384;9.300;2023-10-19T03:41:47;5.65;;;4.00;;
53797;SDS011;39707;45.384;9.300;2023-10-19T03:44:16;5.22;;;4.32;;
53797;SDS011;39707;45.384;9.300;2023-10-19T03:46:45;5.93;;;5.43;;
53797;SDS011;39707;45.384;9.300;2023-10-19T03:49:29;6.82;;;4.15;;
53797;SDS011;39707;45.384;9.300;2023-10-19T03:51:59;9.07;;;5.55;;
53797;SDS011;39707;45.384;9.300;2023-10-19T03:54:45;6.28;;;3.63;;
53797;SDS011;39707;45.384;9.300;2023-10-19T03:57:12;5.55;;;4.80;;
53797;SDS011;39707;45.384;9.300;2023-10-19T03:59:45;4.13;;;3.72;;
53797;SDS011;39707;45.384;9.300;2023-10-19T04:02:12;4.85;;;4.40;;
53797;SDS011;39707;45.384;9.300;2023-10-19T04:04:42;9.80;;;4.80;;
53797;SDS011;39707;45.384;9.300;2023-10-19T04:07:17;4.70;;;4.32;;
53797;SDS011;39707;45.384;9.300;2023-10-19T04:09:49;12.82;;;5.47;;
53797;SDS011;39707;45.384;9.300;2023-10-19T04:12:37;7.68;;;5.60;;
53797;SDS011;39707;45.384;9.300;2023-10-19T04:15:07;6.72;;;4.90;;
53797;SDS011;39707;45.384;9.300;2023-10-19T04:17:43;4.95;;;3.92;;
53797;SDS011;39707;45.384;9.300;2023-10-19T04:20:12;7.45;;;4.68;;
53797;SDS011;39707;45.384;9.300;2023-10-19T04:22:41;9.57;;;5.72;;
53797;SDS011;39707;45.384;9.300;2023-10-19T04:25:07;7.95;;;2.95;;
53797;SDS011;39707;45.384;9.300;2023-10-19T04:27:37;4.53;;;2.97;;
53797;SDS011;39707;45.384;9.300;2023-10-19T04:30:03;9.55;;;4.65;;
53797;SDS011;39707;45.384;9.300;2023-10-19T04:32:29;8.13;;;7.18;;
53797;SDS011;39707;45.384;9.300;2023-10-19T04:34:57;4.78;;;3.60;;
53797;SDS011;39707;45.384;9.300;2023-10-19T04:37:23;12.05;;;6.45;;
53797;SDS011;39707;45.384;9.300;2023-10-19T04:39:49;4.35;;;3.67;;
53797;SDS011;39707;45.384;9.300;2023-10-19T04:42:15;8.48;;;5.15;;
53797;SDS011;39707;45.384;9.300;2023-10-19T04:44:41;8.30;;;6.70;;
53797;SDS011;39707;45.384;9.300;2023-10-19T04:47:07;6.38;;;4.43;;
53797;SDS011;39707;45.384;9.300;2023-10-19T04:49:33;6.70;;;6.10;;
53797;SDS011;39707;45.384;9.300;2023-10-19T04:51:59;8.60;;;5.38;;
53797;SDS011;39707;45.384;9.300;2023-10-19T04:54:25;7.70;;;4.20;;
53797;SDS011;39707;45.384;9.300;2023-10-19T04:56:53;3.80;;;3.50;;
53797;SDS011;39707;45.384;9.300;2023-10-19T04:59:20;4.00;;;3.67;;
53797;SDS011;39707;45.384;9.300;2023-10-19T05:01:46;5.70;;;5.05;;
53797;SDS011;39707;45.384;9.300;2023-10-19T05:04:12;4.72;;;3.97;;
53797;SDS011;39707;45.384;9.300;2023-10-19T05:06:38;15.50;;;4.93;;
53797;SDS011;39707;45.384;9.300;2023-10-19T05:09:04;12.00;;;3.40;;
53797;SDS011;39707;45.384;9.300;2023-10-19T05:11:31;2.88;;;2.75;;
53797;SDS011;39707;45.384;9.300;2023-10-19T05:13:57;1.77;;;1.65;;
53797;SDS011;39707;45.384;9.300;2023-10-19T05:16:23;3.45;;;3.20;;
53797;SDS011;39707;45.384;9.300;2023-10-19T05:18:49;11.05;;;4.38;;
53797;SDS011;39707;45.384;9.300;2023-10-19T05:21:14;4.72;;;3.92;;
53797;SDS011;39707;45.384;9.300;2023-10-19T05:23:40;4.07;;;3.47;;
53797;SDS011;39707;45.384;9.300;2023-10-19T05:26:06;3.95;;;3.53;;
53797;SDS011;39707;45.384;9.300;2023-10-19T05:28:32;3.35;;;3.15;;
53797;SDS011;39707;45.384;9.300;2023-10-19T05:30:58;9.20;;;3.95;;
53797;SDS011;39707;45.384;9.300;2023-10-19T05:33:25;4.45;;;4.05;;
53797;SDS011;39707;45.384;9.300;2023-10-19T05:35:52;5.55;;;5.05;;
53797;SDS011;39707;45.384;9.300;2023-10-19T05:38:18;5.00;;;3.80;;
53797;SDS011;39707;45.384;9.300;2023-10-19T05:40:46;3.83;;;3.22;;
53797;SDS011;39707;45.384;9.300;2023-10-19T05:45:41;3.15;;;1.88;;
53797;SDS011;39707;45.384;9.300;2023-10-19T05:48:07;5.03;;;3.72;;
53797;SDS011;39707;45.384;9.300;2023-10-19T05:50:34;4.50;;;4.18;;
53797;SDS011;39707;45.384;9.300;2023-10-19T05:53:00;6.82;;;3.00;;
53797;SDS011;39707;45.384;9.300;2023-10-19T05:55:26;10.20;;;4.45;;
53797;SDS011;39707;45.384;9.300;2023-10-19T05:57:52;3.38;;;3.13;;
53797;SDS011;39707;45.384;9.300;2023-10-19T06:00:18;3.80;;;3.55;;
53797;SDS011;39707;45.384;9.300;2023-10-19T06:02:46;6.97;;;4.10;;
53797;SDS011;39707;45.384;9.300;2023-10-19T06:05:14;2.47;;;2.17;;
53797;SDS011;39707;45.384;9.300;2023-10-19T06:07:41;3.50;;;3.20;;
53797;SDS011;39707;45.384;9.300;2023-10-19T06:10:07;2.88;;;2.55;;
53797;SDS011;39707;45.384;9.300;2023-10-19T06:12:33;3.83;;;3.10;;
53797;SDS011;39707;45.384;9.300;2023-10-19T06:14:59;6.30;;;2.70;;
53797;SDS011;39707;45.384;9.300;2023-10-19T06:17:26;1.80;;;1.55;;
53797;SDS011;39707;45.384;9.300;2023-10-19T06:19:53;6.38;;;3.13;;
53797;SDS011;39707;45.384;9.300;2023-10-19T06:22:19;5.22;;;2.25;;
53797;SDS011;39707;45.384;9.300;2023-10-19T06:24:45;4.50;;;2.17;;
53797;SDS011;39707;45.384;9.300;2023-10-19T06:27:11;11.55;;;3.72;;
53797;SDS011;39707;45.384;9.300;2023-10-19T06:29:36;5.75;;;3.20;;
53797;SDS011;39707;45.384;9.300;2023-10-19T06:32:03;5.88;;;3.88;;
53797;SDS011;39707;45.384;9.300;2023-10-19T06:34:29;4.10;;;3.70;;
53797;SDS011;39707;45.384;9.300;2023-10-19T06:39:24;2.30;;;1.65;;
53797;SDS011;39707;45.384;9.300;2023-10-19T06:41:50;3.00;;;2.53;;
53797;SDS011;39707;45.384;9.300;2023-10-19T06:44:16;2.35;;;1.88;;
53797;SDS011;39707;45.384;9.300;2023-10-19T06:46:42;11.32;;;3.95;;
53797;SDS011;39707;45.384;9.300;2023-10-19T06:49:11;3.75;;;2.05;;
53797;SDS011;39707;45.384;9.300;2023-10-19T06:51:37;4.15;;;3.70;;
53797;SDS011;39707;45.384;9.300;2023-10-19T06:54:03;2.33;;;2.15;;
53797;SDS011;39707;45.384;9.300;2023-10-19T06:56:29;2.95;;;2.72;;
53797;SDS011;39707;45.384;9.300;2023-10-19T07:01:24;2.20;;;1.33;;
53797;SDS011;39707;45.384;9.300;2023-10-19T07:03:51;4.55;;;3.05;;
53797;SDS011;39707;45.384;9.300;2023-10-19T07:06:18;4.10;;;2.75;;
53797;SDS011;39707;45.384;9.300;2023-10-19T07:08:44;3.67;;;2.08;;
53797;SDS011;39707;45.384;9.300;2023-10-19T07:11:11;5.30;;;3.08;;
53797;SDS011;39707;45.384;9.300;2023-10-19T07:13:37;3.63;;;3.42;;
53797;SDS011;39707;45.384;9.300;2023-10-19T07:16:05;4.65;;;3.00;;
53797;SDS011;39707;45.384;9.300;2023-10-19T07:18:32;3.55;;;3.35;;
53797;SDS011;39707;45.384;9.300;2023-10-19T07:20:58;4.93;;;2.33;;
53797;SDS011;39707;45.384;9.300;2023-10-19T07:23:28;3.20;;;3.00;;
53797;SDS011;39707;45.384;9.300;2023-10-19T07:25:54;4.32;;;3.88;;
53797;SDS011;39707;45.384;9.300;2023-10-19T07:28:21;2.25;;;2.08;;
53797;SDS011;39707;45.384;9.300;2023-10-19T07:30:47;3.25;;;2.95;;
53797;SDS011;39707;45.384;9.300;2023-10-19T07:33:14;2.70;;;2.30;;
53797;SDS011;39707;45.384;9.300;2023-10-19T07:35:43;2.60;;;2.38;;
53797;SDS011;39707;45.384;9.300;2023-10-19T07:38:12;5.13;;;3.50;;
53797;SDS011;39707;45.384;9.300;2023-10-19T07:40:38;7.05;;;2.15;;
53797;SDS011;39707;45.384;9.300;2023-10-19T07:43:04;5.75;;;2.33;;
53797;SDS011;39707;45.384;9.300;2023-10-19T07:45:31;1.45;;;1.38;;
53797;SDS011;39707;45.384;9.300;2023-10-19T07:50:34;1.67;;;1.48;;
53797;SDS011;39707;45.384;9.300;2023-10-19T07:53:01;3.13;;;2.42;;
53797;SDS011;39707;45.384;9.300;2023-10-19T07:55:27;2.05;;;1.83;;
53797;SDS011;39707;45.384;9.300;2023-10-19T07:57:53;2.45;;;2.22;;
53797;SDS011;39707;45.384;9.300;2023-10-19T08:00:20;6.10;;;1.88;;
53797;SDS011;39707;45.384;9.300;2023-10-19T08:02:46;2.95;;;2.22;;
53797;SDS011;39707;45.384;9.300;2023-10-19T08:05:13;3.10;;;1.75;;
53797;SDS011;39707;45.384;9.300;2023-10-19T08:07:39;3.95;;;1.48;;
53797;SDS011;39707;45.384;9.300;2023-10-19T08:10:07;4.32;;;2.88;;
53797;SDS011;39707;45.384;9.300;2023-10-19T08:12:35;3.05;;;2.38;;
53797;SDS011;39707;45.384;9.300;2023-10-19T08:15:01;4.32;;;2.35;;
53797;SDS011;39707;45.384;9.300;2023-10-19T08:17:28;2.33;;;2.17;;
53797;SDS011;39707;45.384;9.300;2023-10-19T08:19:54;1.15;;;1.08;;
53797;SDS011;39707;45.384;9.300;2023-10-19T08:22:20;2.50;;;2.30;;
53797;SDS011;39707;45.384;9.300;2023-10-19T08:24:46;4.03;;;2.97;;
53797;SDS011;39707;45.384;9.300;2023-10-19T08:27:12;2.30;;;1.92;;
53797;SDS011;39707;45.384;9.300;2023-10-19T08:29:38;2.45;;;2.25;;
53797;SDS011;39707;45.384;9.300;2023-10-19T08:32:04;3.78;;;1.85;;
53797;SDS011;39707;45.384;9.300;2023-10-19T08:34:34;4.28;;;1.80;;
53797;SDS011;39707;45.384;9.300;2023-10-19T08:37:04;2.08;;;1.83;;
53797;SDS011;39707;45.384;9.300;2023-10-19T08:39:31;5.30;;;2.97;;
53797;SDS011;39707;45.384;9.300;2023-10-19T08:42:03;1.67;;;1.58;;
53797;SDS011;39707;45.384;9.300;2023-10-19T08:44:30;3.30;;;2.67;;
53797;SDS011;39707;45.384;9.300;2023-10-19T08:46:57;1.65;;;1.38;;
53797;SDS011;39707;45.384;9.300;2023-10-19T08:49:24;3.50;;;2.22;;
53797;SDS011;39707;45.384;9.300;2023-10-19T08:51:51;3.17;;;2.00;;
53797;SDS011;39707;45.384;9.300;2023-10-19T08:54:17;1.70;;;1.58;;
53797;SDS011;39707;45.384;9.300;2023-10-19T08:56:43;1.23;;;1.13;;
53797;SDS011;39707;45.384;9.300;2023-10-19T08:59:10;2.75;;;2.55;;
53797;SDS011;39707;45.384;9.300;2023-10-19T09:01:36;2.83;;;2.53;;
53797;SDS011;39707;45.384;9.300;2023-10-19T09:04:02;3.22;;;2.70;;
53797;SDS011;39707;45.384;9.300;2023-10-19T09:06:33;1.00;;;1.00;;
53797;SDS011;39707;45.384;9.300;2023-10-19T09:09:06;2.03;;;1.90;;
53797;SDS011;39707;45.384;9.300;2023-10-19T09:14:00;1.58;;;1.27;;
53797;SDS011;39707;45.384;9.300;2023-10-19T09:16:28;1.60;;;1.10;;
53797;SDS011;39707;45.384;9.300;2023-10-19T09:18:55;1.97;;;1.53;;
53797;SDS011;39707;45.384;9.300;2023-10-19T09:21:21;4.07;;;1.75;;
53797;SDS011;39707;45.384;9.300;2023-10-19T09:23:57;2.47;;;1.90;;
53797;SDS011;39707;45.384;9.300;2023-10-19T09:26:23;2.85;;;2.03;;
53797;SDS011;39707;45.384;9.300;2023-10-19T09:28:50;4.47;;;2.28;;
53797;SDS011;39707;45.384;9.300;2023-10-19T09:31:17;6.53;;;3.20;;
53797;SDS011;39707;45.384;9.300;2023-10-19T09:33:44;5.13;;;1.38;;
53797;SDS011;39707;45.384;9.300;2023-10-19T09:36:11;1.30;;;1.25;;
53797;SDS011;39707;45.384;9.300;2023-10-19T09:38:47;4.03;;;2.67;;
53797;SDS011;39707;45.384;9.300;2023-10-19T09:41:17;1.75;;;1.10;;
53797;SDS011;39707;45.384;9.300;2023-10-19T09:46:09;8.57;;;2.45;;
53797;SDS011;39707;45.384;9.300;2023-10-19T09:48:39;4.55;;;2.85;;
53797;SDS011;39707;45.384;9.300;2023-10-19T09:51:07;2.90;;;2.47;;
53797;SDS011;39707;45.384;9.300;2023-10-19T09:53:34;12.43;;;3.05;;
53797;SDS011;39707;45.384;9.300;2023-10-19T09:56:00;3.13;;;2.92;;
53797;SDS011;39707;45.384;9.300;2023-10-19T09:58:31;5.38;;;3.97;;
53797;SDS011;39707;45.384;9.300;2023-10-19T10:01:00;4.70;;;3.33;;
53797;SDS011;39707;45.384;9.300;2023-10-19T10:03:43;5.22;;;2.42;;
53797;SDS011;39707;45.384;9.300;2023-10-19T10:06:10;1.65;;;1.55;;
53797;SDS011;39707;45.384;9.300;2023-10-19T10:08:37;3.78;;;2.35;;
53797;SDS011;39707;45.384;9.300;2023-10-19T10:14:02;1.55;;;1.45;;
53797;SDS011;39707;45.384;9.300;2023-10-19T10:16:46;2.78;;;2.58;;
53797;SDS011;39707;45.384;9.300;2023-10-19T10:19:13;4.22;;;2.63;;
53797;SDS011;39707;45.384;9.300;2023-10-19T10:22:03;5.20;;;2.65;;
53797;SDS011;39707;45.384;9.300;2023-10-19T10:24:30;4.45;;;2.10;;
53797;SDS011;39707;45.384;9.300;2023-10-19T10:26:57;4.00;;;2.30;;
53797;SDS011;39707;45.384;9.300;2023-10-19T10:31:51;1.05;;;1.00;;
53797;SDS011;39707;45.384;9.300;2023-10-19T10:37:03;7.80;;;2.97;;
53797;SDS011;39707;45.384;9.300;2023-10-19T10:39:30;5.00;;;1.58;;
53797;SDS011;39707;45.384;9.300;2023-10-19T10:41:59;1.65;;;1.52;;
53797;SDS011;39707;45.384;9.300;2023-10-19T10:44:38;2.63;;;2.42;;
53797;SDS011;39707;45.384;9.300;2023-10-19T10:47:12;1.17;;;1.08;;
53797;SDS011;39707;45.384;9.300;2023-10-19T10:49:54;1.63;;;1.52;;
53797;SDS011;39707;45.384;9.300;2023-10-19T10:52:24;3.10;;;2.38;;
53797;SDS011;39707;45.384;9.300;2023-10-19T10:54:50;3.33;;;2.25;;
53797;SDS011;39707;45.384;9.300;2023-10-19T10:57:17;2.53;;;1.92;;
53797;SDS011;39707;45.384;9.300;2023-10-19T10:59:43;4.97;;;3.13;;
53797;SDS011;39707;45.384;9.300;2023-10-19T11:02:18;1.60;;;1.48;;
53797;SDS011;39707;45.384;9.300;2023-10-19T11:04:46;3.30;;;1.83;;
53797;SDS011;39707;45.384;9.300;2023-10-19T11:07:18;10.50;;;3.97;;
53797;SDS011;39707;45.384;9.300;2023-10-19T11:09:49;2.08;;;1.98;;
53797;SDS011;39707;45.384;9.300;2023-10-19T11:12:16;1.20;;;1.08;;
53797;SDS011;39707;45.384;9.300;2023-10-19T11:14:54;2.55;;;1.88;;
53797;SDS011;39707;45.384;9.300;2023-10-19T11:17:20;2.40;;;2.22;;
53797;SDS011;39707;45.384;9.300;2023-10-19T11:19:53;2.33;;;1.73;;
53797;SDS011;39707;45.384;9.300;2023-10-19T11:22:21;4.60;;;3.25;;
53797;SDS011;39707;45.384;9.300;2023-10-19T11:24:47;2.38;;;1.90;;
53797;SDS011;39707;45.384;9.300;2023-10-19T11:27:21;1.83;;;1.73;;
53797;SDS011;39707;45.384;9.300;2023-10-19T11:29:57;2.65;;;2.45;;
53797;SDS011;39707;45.384;9.300;2023-10-19T11:32:24;1.90;;;1.73;;
53797;SDS011;39707;45.384;9.300;2023-10-19T11:34:54;4.95;;;3.10;;
53797;SDS011;39707;45.384;9.300;2023-10-19T11:37:21;1.60;;;1.08;;
53797;SDS011;39707;45.384;9.300;2023-10-19T11:39:47;1.27;;;1.02;;
53797;SDS011;39707;45.384;9.300;2023-10-19T11:42:15;3.85;;;2.38;;
53797;SDS011;39707;45.384;9.300;2023-10-19T11:44:41;2.60;;;2.13;;
53797;SDS011;39707;45.384;9.300;2023-10-19T11:47:07;1.23;;;1.20;;
53797;SDS011;39707;45.384;9.300;2023-10-19T11:49:32;1.70;;;1.60;;
53797;SDS011;39707;45.384;9.300;2023-10-19T11:51:59;6.32;;;2.45;;
53797;SDS011;39707;45.384;9.300;2023-10-19T11:54:27;1.92;;;1.70;;
53797;SDS011;39707;45.384;9.300;2023-10-19T11:56:54;2.00;;;1.75;;
53797;SDS011;39707;45.384;9.300;2023-10-19T11:59:20;2.95;;;2.63;;
53797;SDS011;39707;45.384;9.300;2023-10-19T12:01:46;7.00;;;2.03;;
53797;SDS011;39707;45.384;9.300;2023-10-19T12:04:12;1.17;;;1.08;;
53797;SDS011;39707;45.384;9.300;2023-10-19T12:06:38;2.13;;;1.48;;
53797;SDS011;39707;45.384;9.300;2023-10-19T12:09:04;3.05;;;2.85;;
53797;SDS011;39707;45.384;9.300;2023-10-19T12:11:40;3.95;;;2.22;;
53797;SDS011;39707;45.384;9.300;2023-10-19T12:14:06;2.53;;;2.25;;
53797;SDS011;39707;45.384;9.300;2023-10-19T12:16:36;3.60;;;1.45;;
53797;SDS011;39707;45.384;9.300;2023-10-19T12:19:04;1.42;;;1.33;;
53797;SDS011;39707;45.384;9.300;2023-10-19T12:21:30;2.28;;;1.58;;
53797;SDS011;39707;45.384;9.300;2023-10-19T12:23:56;6.10;;;2.38;;
53797;SDS011;39707;45.384;9.300;2023-10-19T12:26:24;1.58;;;1.42;;
53797;SDS011;39707;45.384;9.300;2023-10-19T12:28:50;3.30;;;1.33;;
53797;SDS011;39707;45.384;9.300;2023-10-19T12:31:16;4.07;;;3.38;;
53797;SDS011;39707;45.384;9.300;2023-10-19T12:33:47;3.08;;;1.80;;
53797;SDS011;39707;45.384;9.300;2023-10-19T12:36:13;3.25;;;1.70;;
53797;SDS011;39707;45.384;9.300;2023-10-19T12:38:57;2.95;;;2.75;;
53797;SDS011;39707;45.384;9.300;2023-10-19T12:41:24;1.23;;;1.23;;
53797;SDS011;39707;45.384;9.300;2023-10-19T12:43:50;3.83;;;2.65;;
53797;SDS011;39707;45.384;9.300;2023-10-19T12:46:17;6.47;;;1.90;;
53797;SDS011;39707;45.384;9.300;2023-10-19T12:48:44;1.00;;;1.00;;
53797;SDS011;39707;45.384;9.300;2023-10-19T12:51:12;1.05;;;0.90;;
53797;SDS011;39707;45.384;9.300;2023-10-19T12:53:39;2.67;;;1.45;;
53797;SDS011;39707;45.384;9.300;2023-10-19T12:56:05;3.65;;;1.88;;
53797;SDS011;39707;45.384;9.300;2023-10-19T12:58:32;2.83;;;2.30;;
53797;SDS011;39707;45.384;9.300;2023-10-19T13:00:59;1.80;;;1.30;;
53797;SDS011;39707;45.384;9.300;2023-10-19T13:03:25;3.22;;;1.83;;
53797;SDS011;39707;45.384;9.300;2023-10-19T13:05:57;2.33;;;2.22;;
53797;SDS011;39707;45.384;9.300;2023-10-19T13:08:23;1.83;;;1.73;;
53797;SDS011;39707;45.384;9.300;2023-10-19T13:10:52;2.83;;;2.08;;
53797;SDS011;39707;45.384;9.300;2023-10-19T13:13:19;2.80;;;2.60;;
53797;SDS011;39707;45.384;9.300;2023-10-19T13:15:48;3.00;;;2.15;;
53797;SDS011;39707;45.384;9.300;2023-10-19T13:18:14;2.33;;;2.05;;
53797;SDS011;39707;45.384;9.300;2023-10-19T13:20:53;3.90;;;2.70;;
53797;SDS011;39707;45.384;9.300;2023-10-19T13:23:19;2.63;;;2.13;;
53797;SDS011;39707;45.384;9.300;2023-10-19T13:25:49;2.33;;;2.00;;
53797;SDS011;39707;45.384;9.300;2023-10-19T13:28:18;3.40;;;1.98;;
53797;SDS011;39707;45.384;9.300;2023-10-19T13:30:48;3.22;;;2.00;;
53797;SDS011;39707;45.384;9.300;2023-10-19T13:33:14;1.85;;;1.75;;
53797;SDS011;39707;45.384;9.300;2023-10-19T13:35:41;3.40;;;3.00;;
53797;SDS011;39707;45.384;9.300;2023-10-19T13:38:07;2.83;;;1.85;;
53797;SDS011;39707;45.384;9.300;2023-10-19T13:40:39;1.63;;;1.50;;
53797;SDS011;39707;45.384;9.300;2023-10-19T13:43:06;2.15;;;1.95;;
53797;SDS011;39707;45.384;9.300;2023-10-19T13:45:33;3.45;;;2.35;;
53797;SDS011;39707;45.384;9.300;2023-10-19T13:48:00;0.93;;;0.77;;
53797;SDS011;39707;45.384;9.300;2023-10-19T13:50:26;4.18;;;3.85;;
53797;SDS011;39707;45.384;9.300;2023-10-19T13:52:53;2.28;;;1.20;;
53797;SDS011;39707;45.384;9.300;2023-10-19T13:55:19;3.60;;;2.53;;
53797;SDS011;39707;45.384;9.300;2023-10-19T13:57:47;1.25;;;1.25;;
53797;SDS011;39707;45.384;9.300;2023-10-19T14:00:14;1.45;;;1.35;;
53797;SDS011;39707;45.384;9.300;2023-10-19T14:02:48;4.38;;;2.33;;
53797;SDS011;39707;45.384;9.300;2023-10-19T14:05:14;2.70;;;2.45;;
53797;SDS011;39707;45.384;9.300;2023-10-19T14:07:40;1.58;;;1.33;;
53797;SDS011;39707;45.384;9.300;2023-10-19T14:10:07;3.53;;;3.13;;
53797;SDS011;39707;45.384;9.300;2023-10-19T14:12:33;2.10;;;2.00;;
53797;SDS011;39707;45.384;9.300;2023-10-19T14:14:59;1.40;;;1.30;;
53797;SDS011;39707;45.384;9.300;2023-10-19T14:17:25;1.58;;;1.17;;
53797;SDS011;39707;45.384;9.300;2023-10-19T14:19:51;1.45;;;1.33;;
53797;SDS011;39707;45.384;9.300;2023-10-19T14:22:18;1.67;;;1.58;;
53797;SDS011;39707;45.384;9.300;2023-10-19T14:24:44;3.60;;;2.28;;
53797;SDS011;39707;45.384;9.300;2023-10-19T14:27:10;4.00;;;3.42;;
53797;SDS011;39707;45.384;9.300;2023-10-19T14:29:36;4.90;;;2.00;;
53797;SDS011;39707;45.384;9.300;2023-10-19T14:32:02;2.65;;;2.47;;
53797;SDS011;39707;45.384;9.300;2023-10-19T14:34:28;2.45;;;2.25;;
53797;SDS011;39707;45.384;9.300;2023-10-19T14:36:54;1.52;;;1.48;;
53797;SDS011;39707;45.384;9.300;2023-10-19T14:39:20;2.20;;;1.45;;
53797;SDS011;39707;45.384;9.300;2023-10-19T14:41:46;4.25;;;2.53;;
53797;SDS011;39707;45.384;9.300;2023-10-19T14:44:12;0.70;;;0.70;;
53797;SDS011;39707;45.384;9.300;2023-10-19T14:46:39;1.42;;;1.33;;
53797;SDS011;39707;45.384;9.300;2023-10-19T14:49:05;4.30;;;2.80;;
53797;SDS011;39707;45.384;9.300;2023-10-19T14:51:31;3.10;;;2.83;;
53797;SDS011;39707;45.384;9.300;2023-10-19T14:53:58;1.50;;;1.45;;
53797;SDS011;39707;45.384;9.300;2023-10-19T14:56:23;1.58;;;1.48;;
53797;SDS011;39707;45.384;9.300;2023-10-19T14:58:49;6.82;;;2.00;;
53797;SDS011;39707;45.384;9.300;2023-10-19T15:01:25;2.75;;;2.55;;
53797;SDS011;39707;45.384;9.300;2023-10-19T15:03:51;2.45;;;2.00;;
53797;SDS011;39707;45.384;9.300;2023-10-19T15:06:17;3.55;;;1.33;;
53797;SDS011;39707;45.384;9.300;2023-10-19T15:08:43;3.55;;;2.38;;
53797;SDS011;39707;45.384;9.300;2023-10-19T15:11:10;2.42;;;2.25;;
53797;SDS011;39707;45.384;9.300;2023-10-19T15:13:36;3.22;;;2.38;;
53797;SDS011;39707;45.384;9.300;2023-10-19T15:16:09;3.83;;;2.05;;
53797;SDS011;39707;45.384;9.300;2023-10-19T15:18:37;1.63;;;1.52;;
53797;SDS011;39707;45.384;9.300;2023-10-19T15:21:10;3.13;;;2.60;;